Time;durP1;ratioP1;P1;durP2;ratioP2;P2;SDS_P1;SDS_P2;PMS_P1;PMS_P2;Temp;Humidity;BMP_temperature;BMP_pressure;BME280_temperature;BME280_humidity;BME280_pressure;Samples;Min_cycle;Max_cycle;Signal;HPM_P1;HPM_P2
2021/07/13 00:00:02;;;;;;;3.35;3.05;;;;;25.50;100868.00;;;;5070389;28;20219;-77
2021/07/13 00:02:29;;;;;;;4.50;3.53;;;;;25.50;100873.00;;;;5079142;28;20391;-77
2021/07/13 00:04:56;;;;;;;3.30;3.00;;;;;25.50;100871.00;;;;5069639;28;20195;-77
2021/07/13 00:07:23;;;;;;;4.10;3.15;;;;;25.50;100867.00;;;;5069745;28;20191;-77
2021/07/13 00:09:51;;;;;;;3.28;2.97;;;;;25.50;100860.00;;;;5069215;28;20207;-77
2021/07/13 00:12:18;;;;;;;3.70;3.30;;;;;25.50;100865.00;;;;5074991;28;20198;-77
2021/07/13 00:14:45;;;;;;;3.80;3.15;;;;;25.50;100868.00;;;;5076424;28;20665;-77
2021/07/13 00:17:14;;;;;;;3.70;3.40;;;;;25.40;100870.00;;;;5073541;28;20198;-77
2021/07/13 00:19:41;;;;;;;4.10;3.70;;;;;25.50;100877.00;;;;5071870;28;20199;-77
2021/07/13 00:22:08;;;;;;;4.28;3.88;;;;;25.50;100872.00;;;;5070560;28;20238;-77
2021/07/13 00:24:35;;;;;;;4.25;3.83;;;;;25.50;100866.00;;;;5081582;28;20202;-77
2021/07/13 00:27:03;;;;;;;4.15;3.67;;;;;25.50;100873.00;;;;5075641;28;20592;-77
2021/07/13 00:29:30;;;;;;;4.30;3.90;;;;;25.50;100868.00;;;;5076282;28;20578;-77
2021/07/13 00:31:57;;;;;;;4.70;4.30;;;;;25.50;100870.00;;;;5075090;28;20195;-77
2021/07/13 00:34:26;;;;;;;4.13;3.72;;;;;25.40;100876.00;;;;5068207;28;20202;-77
2021/07/13 00:36:53;;;;;;;5.18;4.05;;;;;25.40;100882.00;;;;5070596;28;20202;-77
2021/07/13 00:39:20;;;;;;;4.55;4.15;;;;;25.50;100874.00;;;;5069780;28;20194;-77
2021/07/13 00:41:47;;;;;;;8.15;4.60;;;;;25.40;100870.00;;;;5069144;28;20218;-77
2021/07/13 00:44:15;;;;;;;4.97;4.50;;;;;25.40;100860.00;;;;5079444;28;20213;-77
2021/07/13 00:46:47;;;;;;;5.75;4.53;;;;;25.40;100869.00;;;;5084032;28;20188;-77
2021/07/13 00:49:16;;;;;;;6.55;5.95;;;;;25.40;100878.00;;;;5080380;28;20235;-77
2021/07/13 00:51:46;;;;;;;7.70;6.90;;;;;25.40;100875.00;;;;5080908;28;20191;-77
2021/07/13 00:54:14;;;;;;;9.05;7.15;;;;;25.40;100870.00;;;;5068470;28;20199;-77
2021/07/13 00:56:43;;;;;;;6.80;6.15;;;;;25.40;100870.00;;;;5069431;28;20207;-77
2021/07/13 00:59:11;;;;;;;7.93;6.85;;;;;25.40;100875.00;;;;5071347;28;20198;-77
2021/07/13 01:01:39;;;;;;;7.15;6.47;;;;;25.40;100885.00;;;;5069504;28;20305;-77
2021/07/13 01:04:07;;;;;;;7.70;7.00;;;;;25.40;100885.00;;;;5076898;28;20206;-77
2021/07/13 01:06:44;;;;;;;8.32;6.40;;;;;25.40;100877.00;;;;5078948;28;20205;-77
2021/07/13 01:09:18;;;;;;;7.00;6.20;;;;;25.40;100878.00;;;;5084570;28;21009;-77
2021/07/13 01:11:49;;;;;;;6.43;5.82;;;;;25.40;100881.00;;;;5069774;28;20197;-77
2021/07/13 01:14:26;;;;;;;7.95;6.25;;;;;25.40;100886.00;;;;5068206;28;20195;-77
2021/07/13 01:16:58;;;;;;;7.05;6.40;;;;;25.40;100883.00;;;;5068715;28;20286;-77
2021/07/13 01:19:49;;;;;;;6.93;6.32;;;;;25.40;100867.00;;;;5068153;28;20680;-78
2021/07/13 01:22:21;;;;;;;8.75;6.70;;;;;25.50;100862.00;;;;5068460;28;20215;-77
2021/07/13 01:25:10;;;;;;;7.45;6.75;;;;;25.40;100865.00;;;;5068025;28;20199;-77
2021/07/13 01:27:50;;;;;;;6.38;5.78;;;;;25.40;100854.00;;;;5077623;28;20342;-77
2021/07/13 01:30:22;;;;;;;6.55;5.93;;;;;25.50;100862.00;;;;5086806;28;20202;-77
2021/07/13 01:32:54;;;;;;;5.97;5.40;;;;;25.50;100859.00;;;;5068563;28;20272;-77
2021/07/13 01:35:25;;;;;;;6.22;5.35;;;;;25.50;100859.00;;;;5077537;28;20234;-77
2021/07/13 01:37:56;;;;;;;5.20;4.70;;;;;25.50;100865.00;;;;5068336;28;20201;-77
2021/07/13 01:40:25;;;;;;;5.70;5.15;;;;;25.50;100864.00;;;;5067529;28;20194;-77
2021/07/13 01:42:53;;;;;;;5.07;4.60;;;;;25.50;100859.00;;;;5068416;28;20680;-77
2021/07/13 01:45:22;;;;;;;6.25;5.65;;;;;25.40;100855.00;;;;5068279;28;20206;-77
2021/07/13 01:47:51;;;;;;;5.78;5.28;;;;;25.50;100849.00;;;;5074123;28;20248;-77
2021/07/13 01:50:18;;;;;;;5.45;4.95;;;;;25.50;100848.00;;;;5067617;28;20191;-77
2021/07/13 01:52:46;;;;;;;7.15;6.45;;;;;25.40;100833.00;;;;5068045;28;20203;-78
2021/07/13 01:55:15;;;;;;;6.70;5.95;;;;;25.40;100835.00;;;;5069617;28;20252;-77
2021/07/13 01:57:43;;;;;;;6.20;5.60;;;;;25.40;100827.00;;;;5068068;28;20548;-77
2021/07/13 02:00:11;;;;;;;7.57;6.35;;;;;25.40;100825.00;;;;5081531;28;20194;-77
2021/07/13 02:02:42;;;;;;;8.68;7.63;;;;;25.40;100824.00;;;;5085689;28;20958;-78
2021/07/13 02:05:12;;;;;;;9.55;8.63;;;;;25.30;100831.00;;;;5080755;28;20281;-78
2021/07/13 02:07:43;;;;;;;10.57;9.48;;;;;25.30;100837.00;;;;5070349;28;20210;-77
2021/07/13 02:10:11;;;;;;;10.50;9.50;;;;;25.30;100835.00;;;;5080031;28;20301;-77
2021/07/13 02:12:40;;;;;;;9.25;8.27;;;;;25.30;100837.00;;;;5087631;28;20198;-77
2021/07/13 02:15:08;;;;;;;10.43;9.05;;;;;25.30;100843.00;;;;5070729;28;20286;-76
2021/07/13 02:17:36;;;;;;;10.35;9.27;;;;;25.30;100843.00;;;;5068231;28;20195;-77
2021/07/13 02:20:08;;;;;;;11.18;10.00;;;;;25.30;100846.00;;;;5068902;28;20412;-77
2021/07/13 02:22:35;;;;;;;11.25;10.07;;;;;25.40;100834.00;;;;5068165;28;20226;-76
2021/07/13 02:25:03;;;;;;;11.48;9.82;;;;;25.40;100831.00;;;;5068429;28;20202;-77
2021/07/13 02:27:31;;;;;;;10.48;9.40;;;;;25.40;100834.00;;;;5071226;28;20207;-77
2021/07/13 02:30:00;;;;;;;10.80;9.73;;;;;25.40;100830.00;;;;5069058;28;20207;-77
2021/07/13 02:32:32;;;;;;;11.43;10.15;;;;;25.40;100833.00;;;;5083571;28;20205;-77
2021/07/13 02:35:02;;;;;;;14.25;9.77;;;;;25.40;100829.00;;;;5085472;28;20768;-77
2021/07/13 02:37:31;;;;;;;12.23;10.93;;;;;25.40;100818.00;;;;5076640;28;20206;-76
2021/07/13 02:39:58;;;;;;;11.98;10.75;;;;;25.40;100822.00;;;;5087752;28;20209;-77
2021/07/13 02:42:29;;;;;;;12.52;10.02;;;;;25.30;100826.00;;;;5074607;28;20226;-77
2021/07/13 02:44:58;;;;;;;13.38;11.00;;;;;25.40;100828.00;;;;5075773;28;20664;-77
2021/07/13 02:47:27;;;;;;;12.77;11.32;;;;;25.40;100827.00;;;;5082343;28;20225;-77
2021/07/13 02:49:57;;;;;;;14.25;11.95;;;;;25.40;100832.00;;;;5088675;28;20194;-77
2021/07/13 02:52:28;;;;;;;17.52;12.55;;;;;25.40;100827.00;;;;5077386;28;20218;-77
2021/07/13 02:55:00;;;;;;;13.32;11.45;;;;;25.40;100831.00;;;;5071561;28;20195;-78
2021/07/13 02:57:29;;;;;;;10.85;8.30;;;;;25.40;100833.00;;;;5075663;28;20211;-77
2021/07/13 02:59:57;;;;;;;11.23;9.93;;;;;25.40;100832.00;;;;5071619;28;20240;-77
2021/07/13 03:02:26;;;;;;;12.52;11.23;;;;;25.50;100818.00;;;;5071034;28;20226;-77
2021/07/13 03:04:54;;;;;;;11.27;10.07;;;;;25.50;100826.00;;;;5084102;28;20202;-77
2021/07/13 03:07:22;;;;;;;13.15;11.75;;;;;25.50;100822.00;;;;5071946;28;20202;-77
2021/07/13 03:09:50;;;;;;;13.35;11.05;;;;;25.50;100815.00;;;;5070686;28;20636;-78
2021/07/13 03:12:19;;;;;;;14.25;12.25;;;;;25.50;100820.00;;;;5085805;28;20194;-77
2021/07/13 03:14:48;;;;;;;14.23;12.52;;;;;25.50;100816.00;;;;5078108;28;20578;-77
2021/07/13 03:17:17;;;;;;;15.23;13.35;;;;;25.50;100816.00;;;;5085336;28;20202;-77
2021/07/13 03:19:45;;;;;;;14.32;12.02;;;;;25.50;100815.00;;;;5071354;28;20203;-77
2021/07/13 03:22:20;;;;;;;13.40;11.63;;;;;25.50;100814.00;;;;5083840;28;20222;-77
2021/07/13 03:24:49;;;;;;;14.38;12.82;;;;;25.50;100821.00;;;;5077938;28;20206;-77
2021/07/13 03:27:19;;;;;;;16.20;12.13;;;;;25.50;100822.00;;;;5070379;28;20673;-77
2021/07/13 03:29:49;;;;;;;15.77;13.13;;;;;25.50;100825.00;;;;5079924;28;20203;-77
2021/07/13 03:32:17;;;;;;;15.60;13.98;;;;;25.50;100826.00;;;;5070213;28;20198;-77
2021/07/13 03:34:46;;;;;;;14.73;12.35;;;;;25.50;100832.00;;;;5071821;28;20225;-77
2021/07/13 03:37:15;;;;;;;14.07;11.70;;;;;25.50;100831.00;;;;5069971;28;20199;-77
2021/07/13 03:39:44;;;;;;;12.32;9.55;;;;;25.50;100827.00;;;;5070296;28;20206;-77
2021/07/13 03:42:11;;;;;;;12.07;10.07;;;;;25.50;100836.00;;;;5069596;28;20219;-77
2021/07/13 03:44:41;;;;;;;13.80;11.57;;;;;25.50;100831.00;;;;5070718;28;20219;-77
2021/07/13 03:47:12;;;;;;;12.48;11.18;;;;;25.50;100837.00;;;;5069901;28;20214;-77
2021/07/13 03:49:40;;;;;;;13.18;11.77;;;;;25.60;100834.00;;;;5075498;28;20664;-77
2021/07/13 03:52:08;;;;;;;15.50;13.43;;;;;25.60;100833.00;;;;5078840;28;20203;-77
2021/07/13 03:54:36;;;;;;;15.25;13.57;;;;;25.60;100838.00;;;;5069826;28;20735;-77
2021/07/13 03:57:03;;;;;;;14.95;12.60;;;;;25.60;100844.00;;;;5077735;28;20203;-78
2021/07/13 03:59:31;;;;;;;19.48;14.93;;;;;25.60;100839.00;;;;5070049;28;20206;-77
2021/07/13 04:01:59;;;;;;;21.83;15.25;;;;;25.60;100847.00;;;;5070305;28;20244;-77
2021/07/13 04:04:26;;;;;;;16.13;13.63;;;;;25.70;100850.00;;;;5076728;28;20228;-77
2021/07/13 04:06:55;;;;;;;19.38;14.55;;;;;25.70;100851.00;;;;5073296;28;20206;-77
2021/07/13 04:09:22;;;;;;;15.57;13.85;;;;;25.70;100855.00;;;;5088582;28;20218;-77
2021/07/13 04:11:49;;;;;;;16.45;13.93;;;;;25.70;100859.00;;;;5073600;28;20201;-78
2021/07/13 04:14:16;;;;;;;16.02;12.40;;;;;25.70;100852.00;;;;5083899;28;20207;-77
2021/07/13 04:16:44;;;;;;;20.63;16.00;;;;;25.70;100850.00;;;;5070930;28;20203;-78
2021/07/13 04:19:13;;;;;;;20.10;14.10;;;;;25.70;100850.00;;;;5082251;28;20216;-77
2021/07/13 04:21:40;;;;;;;19.33;15.00;;;;;25.70;100856.00;;;;5076177;28;20230;-77
2021/07/13 04:24:08;;;;;;;18.65;15.15;;;;;25.70;100850.00;;;;5084558;28;20244;-78
2021/07/13 04:26:35;;;;;;;21.63;16.40;;;;;25.70;100856.00;;;;5079347;28;20196;-77
2021/07/13 04:29:02;;;;;;;20.27;15.98;;;;;25.70;100862.00;;;;5088531;28;20191;-77
2021/07/13 04:31:30;;;;;;;21.42;16.50;;;;;25.70;100851.00;;;;5085342;28;20206;-77
2021/07/13 04:33:57;;;;;;;23.00;17.83;;;;;25.70;100853.00;;;;5083988;28;20191;-77
2021/07/13 04:36:26;;;;;;;20.83;15.93;;;;;25.60;100854.00;;;;5074689;28;20222;-78
2021/07/13 04:38:53;;;;;;;21.27;15.25;;;;;25.60;100858.00;;;;5068928;28;20206;-77
2021/07/13 04:41:20;;;;;;;22.23;16.85;;;;;25.60;100856.00;;;;5069782;28;20195;-77
2021/07/13 04:43:48;;;;;;;23.92;18.00;;;;;25.60;100853.00;;;;5068151;28;20198;-77
2021/07/13 04:46:15;;;;;;;22.60;17.67;;;;;25.60;100858.00;;;;5068929;28;20285;-78
2021/07/13 04:48:42;;;;;;;21.38;17.42;;;;;25.60;100865.00;;;;5069455;28;20206;-77
2021/07/13 04:51:09;;;;;;;23.75;17.38;;;;;25.70;100864.00;;;;5069393;28;20256;-77
2021/07/13 04:53:38;;;;;;;20.75;17.58;;;;;25.70;100856.00;;;;5072457;28;20665;-78
2021/07/13 04:56:05;;;;;;;28.83;18.52;;;;;25.70;100857.00;;;;5073017;28;20226;-78
2021/07/13 04:58:33;;;;;;;23.92;18.33;;;;;25.70;100859.00;;;;5068600;28;20202;-78
2021/07/13 05:01:00;;;;;;;23.02;18.38;;;;;25.70;100856.00;;;;5070740;28;20195;-78
2021/07/13 05:03:27;;;;;;;24.05;18.13;;;;;25.70;100857.00;;;;5089114;28;20226;-77
2021/07/13 05:05:54;;;;;;;24.95;19.05;;;;;25.80;100853.00;;;;5074404;28;20202;-78
2021/07/13 05:08:22;;;;;;;25.85;19.38;;;;;25.80;100859.00;;;;5069633;28;20194;-78
2021/07/13 05:10:51;;;;;;;22.95;18.42;;;;;25.80;100862.00;;;;5079187;28;20218;-78
2021/07/13 05:13:19;;;;;;;22.67;17.55;;;;;25.80;100864.00;;;;5077973;28;20194;-79
2021/07/13 05:15:47;;;;;;;29.10;19.13;;;;;25.80;100862.00;;;;5082745;28;20199;-79
2021/07/13 05:18:15;;;;;;;29.98;19.50;;;;;25.80;100871.00;;;;5083211;28;20202;-78
2021/07/13 05:20:47;;;;;;;26.65;19.33;;;;;25.80;100871.00;;;;5070926;28;20669;-79
2021/07/13 05:23:14;;;;;;;25.27;18.55;;;;;25.80;100866.00;;;;5077124;28;20305;-78
2021/07/13 05:25:42;;;;;;;22.63;16.85;;;;;25.80;100858.00;;;;5084212;28;20202;-79
2021/07/13 05:28:12;;;;;;;23.27;17.98;;;;;25.70;100853.00;;;;5070358;28;20209;-77
2021/07/13 05:30:40;;;;;;;22.60;17.00;;;;;25.80;100847.00;;;;5077931;28;20252;-80
2021/07/13 05:33:07;;;;;;;24.85;19.08;;;;;25.80;100844.00;;;;5072681;28;20199;-78
2021/07/13 05:35:34;;;;;;;24.13;17.95;;;;;25.80;100843.00;;;;5075716;28;20222;-78
2021/07/13 05:38:02;;;;;;;23.33;18.25;;;;;25.80;100844.00;;;;5073518;28;20209;-78
2021/07/13 05:40:29;;;;;;;24.92;18.20;;;;;25.80;100846.00;;;;5084746;28;20209;-79
2021/07/13 05:42:56;;;;;;;21.90;17.00;;;;;25.80;100848.00;;;;5079197;28;20225;-77
2021/07/13 05:45:25;;;;;;;24.10;17.88;;;;;25.80;100855.00;;;;5069761;28;20195;-76
2021/07/13 05:47:52;;;;;;;25.00;17.83;;;;;25.90;100851.00;;;;5066925;28;20313;-78
2021/07/13 05:50:19;;;;;;;21.60;16.08;;;;;25.90;100850.00;;;;5068119;28;20191;-78
2021/07/13 05:52:47;;;;;;;23.50;17.60;;;;;25.90;100850.00;;;;5069560;28;20201;-76
2021/07/13 05:55:14;;;;;;;21.27;16.67;;;;;25.90;100839.00;;;;5067917;28;20195;-78
2021/07/13 05:57:41;;;;;;;21.35;16.67;;;;;26.00;100845.00;;;;5067512;28;20198;-79
2021/07/13 06:00:10;;;;;;;24.08;18.40;;;;;26.00;100848.00;;;;5067257;28;20210;-79
2021/07/13 06:02:39;;;;;;;21.15;16.90;;;;;26.00;100850.00;;;;5068268;28;20694;-79
2021/07/13 06:05:07;;;;;;;20.33;16.83;;;;;26.00;100855.00;;;;5068252;28;20203;-81
2021/07/13 06:07:40;;;;;;;20.38;17.40;;;;;26.10;100855.00;;;;5066834;28;20203;-80
2021/07/13 06:10:08;;;;;;;19.75;15.57;;;;;26.10;100854.00;;;;5068050;28;20222;-79
2021/07/13 06:12:35;;;;;;;22.70;16.67;;;;;26.10;100854.00;;;;5068358;28;20214;-79
2021/07/13 06:15:03;;;;;;;20.45;16.35;;;;;26.10;100849.00;;;;5068059;28;20209;-80
2021/07/13 06:17:30;;;;;;;21.98;17.08;;;;;26.20;100853.00;;;;5068921;28;20203;-79
2021/07/13 06:19:59;;;;;;;21.65;17.02;;;;;26.10;100850.00;;;;5071574;28;20209;-80
2021/07/13 06:22:26;;;;;;;21.70;16.63;;;;;26.20;100858.00;;;;5071942;28;20222;-79
2021/07/13 06:24:53;;;;;;;20.00;16.98;;;;;26.20;100863.00;;;;5071847;28;20202;-79
2021/07/13 06:27:22;;;;;;;20.02;16.25;;;;;26.20;100869.00;;;;5083442;28;20731;-79
2021/07/13 06:29:49;;;;;;;18.65;15.63;;;;;26.20;100865.00;;;;5092140;28;20225;-79
2021/07/13 06:32:16;;;;;;;18.50;15.10;;;;;26.20;100873.00;;;;5092368;28;20209;-79
2021/07/13 06:34:43;;;;;;;19.92;15.00;;;;;26.20;100872.00;;;;5089425;28;20226;-80
2021/07/13 06:37:12;;;;;;;18.73;15.15;;;;;26.20;100875.00;;;;5072059;28;20203;-79
2021/07/13 06:39:39;;;;;;;21.73;15.05;;;;;26.30;100879.00;;;;5071289;28;20212;-79
2021/07/13 06:42:07;;;;;;;17.98;14.00;;;;;26.30;100885.00;;;;5071656;28;20755;-79
2021/07/13 06:44:34;;;;;;;20.13;15.40;;;;;26.30;100894.00;;;;5071699;28;20206;-79
2021/07/13 06:47:01;;;;;;;19.50;15.60;;;;;26.30;100898.00;;;;5072120;28;20195;-80
2021/07/13 06:49:28;;;;;;;17.98;14.38;;;;;26.30;100894.00;;;;5071077;28;20218;-80
2021/07/13 06:51:56;;;;;;;18.20;14.90;;;;;26.40;100898.00;;;;5071558;28;20192;-79
2021/07/13 06:54:24;;;;;;;20.35;14.88;;;;;26.30;100897.00;;;;5072656;28;20198;-78
2021/07/13 06:56:51;;;;;;;17.95;14.75;;;;;26.40;100892.00;;;;5085739;28;20202;-79
2021/07/13 06:59:19;;;;;;;19.08;15.68;;;;;26.40;100898.00;;;;5085194;28;20205;-79
2021/07/13 07:01:46;;;;;;;19.63;14.80;;;;;26.40;100896.00;;;;5086003;28;20198;-79
2021/07/13 07:04:13;;;;;;;21.88;15.90;;;;;26.40;100888.00;;;;5070541;28;20223;-79
2021/07/13 07:06:41;;;;;;;19.88;15.82;;;;;26.40;100894.00;;;;5070557;28;20207;-78
2021/07/13 07:09:08;;;;;;;22.30;15.98;;;;;26.40;100897.00;;;;5076390;28;20248;-78
2021/07/13 07:11:37;;;;;;;19.48;14.15;;;;;26.30;100903.00;;;;5070593;28;20187;-79
2021/07/13 07:14:04;;;;;;;19.45;14.93;;;;;26.30;100901.00;;;;5070043;28;20195;-79
2021/07/13 07:16:31;;;;;;;18.50;13.82;;;;;26.40;100905.00;;;;5077468;28;20217;-79
2021/07/13 07:18:58;;;;;;;19.58;13.90;;;;;26.30;100895.00;;;;5090163;28;20202;-79
2021/07/13 07:21:25;;;;;;;18.17;14.38;;;;;26.30;100896.00;;;;5085789;28;20191;-79
2021/07/13 07:23:53;;;;;;;21.70;16.38;;;;;26.40;100900.00;;;;5070086;28;20230;-78
2021/07/13 07:26:20;;;;;;;16.48;11.77;;;;;26.40;100899.00;;;;5072879;28;20589;-78
2021/07/13 07:28:49;;;;;;;21.80;14.90;;;;;26.50;100902.00;;;;5081033;28;20190;-79
2021/07/13 07:31:18;;;;;;;20.08;15.43;;;;;26.50;100901.00;;;;5079151;28;20207;-79
2021/07/13 07:33:45;;;;;;;19.25;14.93;;;;;26.50;100902.00;;;;5069474;28;20207;-79
2021/07/13 07:36:12;;;;;;;19.48;14.40;;;;;26.50;100904.00;;;;5078179;28;20226;-79
2021/07/13 07:38:40;;;;;;;20.17;14.63;;;;;26.50;100897.00;;;;5087465;28;20202;-78
2021/07/13 07:41:08;;;;;;;20.13;15.73;;;;;26.50;100903.00;;;;5090139;28;20238;-80
2021/07/13 07:43:35;;;;;;;20.40;15.48;;;;;26.50;100905.00;;;;5076953;28;20226;-79
2021/07/13 07:46:03;;;;;;;17.45;14.38;;;;;26.50;100914.00;;;;5070339;28;20195;-79
2021/07/13 07:48:31;;;;;;;21.08;14.70;;;;;26.50;100902.00;;;;5069001;28;20199;-78
2021/07/13 07:50:58;;;;;;;19.00;13.73;;;;;26.50;100903.00;;;;5081907;28;20566;-78
2021/07/13 07:53:25;;;;;;;17.65;13.88;;;;;26.50;100911.00;;;;5082652;28;20206;-78
2021/07/13 07:55:52;;;;;;;19.13;13.20;;;;;26.60;100909.00;;;;5082842;28;20221;-78
2021/07/13 07:58:19;;;;;;;20.63;14.73;;;;;26.60;100914.00;;;;5085449;28;20668;-78
2021/07/13 08:00:47;;;;;;;17.80;14.10;;;;;26.60;100914.00;;;;5083067;28;20195;-77
2021/07/13 08:03:15;;;;;;;18.05;14.07;;;;;26.60;100913.00;;;;5069436;28;20258;-78
2021/07/13 08:05:43;;;;;;;21.75;14.40;;;;;26.70;100915.00;;;;5069223;28;20568;-77
2021/07/13 08:08:10;;;;;;;16.27;13.32;;;;;26.70;100915.00;;;;5068793;28;20201;-79
2021/07/13 08:10:38;;;;;;;17.48;12.55;;;;;26.70;100917.00;;;;5068576;28;20223;-78
2021/07/13 08:13:05;;;;;;;19.33;14.30;;;;;26.70;100914.00;;;;5069753;28;20202;-79
2021/07/13 08:15:33;;;;;;;23.35;15.15;;;;;26.60;100920.00;;;;5086056;28;20195;-78
2021/07/13 08:18:00;;;;;;;20.48;14.27;;;;;26.60;100914.00;;;;5081737;28;20661;-80
2021/07/13 08:20:29;;;;;;;18.08;13.13;;;;;26.60;100914.00;;;;5083866;28;20191;-79
2021/07/13 08:22:56;;;;;;;18.80;13.00;;;;;26.60;100924.00;;;;5072526;28;20222;-78
2021/07/13 08:25:23;;;;;;;19.58;13.20;;;;;26.70;100923.00;;;;5079580;28;20213;-79
2021/07/13 08:27:51;;;;;;;18.80;13.32;;;;;26.70;100920.00;;;;5076205;28;20198;-78
2021/07/13 08:30:18;;;;;;;20.42;13.45;;;;;26.70;100927.00;;;;5089278;28;20225;-79
2021/07/13 08:32:46;;;;;;;17.00;12.30;;;;;26.70;100918.00;;;;5089342;28;21127;-79
2021/07/13 08:35:14;;;;;;;18.83;14.95;;;;;26.70;100933.00;;;;5071872;28;20717;-78
2021/07/13 08:37:42;;;;;;;18.50;13.85;;;;;26.70;100942.00;;;;5089168;28;20213;-80
2021/07/13 08:40:12;;;;;;;18.25;13.30;;;;;26.60;100937.00;;;;5080599;28;20207;-79
2021/07/13 08:42:40;;;;;;;16.25;13.85;;;;;26.70;100943.00;;;;5068498;28;20285;-79
2021/07/13 08:45:09;;;;;;;17.52;12.52;;;;;26.60;100938.00;;;;5072405;28;20199;-79
2021/07/13 08:47:38;;;;;;;17.58;13.10;;;;;26.60;100944.00;;;;5068915;28;20191;-78
2021/07/13 08:50:06;;;;;;;17.77;12.65;;;;;26.60;100943.00;;;;5068737;28;20752;-78
2021/07/13 08:52:34;;;;;;;17.70;12.85;;;;;26.60;100941.00;;;;5072627;28;20195;-79
2021/07/13 08:55:04;;;;;;;17.45;12.90;;;;;26.50;100944.00;;;;5069275;28;20198;-80
2021/07/13 08:57:31;;;;;;;15.95;12.85;;;;;26.50;100936.00;;;;5076793;28;20194;-80
2021/07/13 08:59:59;;;;;;;18.33;13.95;;;;;26.50;100938.00;;;;5089019;28;20247;-80
2021/07/13 09:02:26;;;;;;;19.00;13.75;;;;;26.50;100942.00;;;;5080683;28;20557;-80
2021/07/13 09:04:53;;;;;;;14.57;12.00;;;;;26.50;100935.00;;;;5068368;28;20234;-79
2021/07/13 09:07:20;;;;;;;17.38;13.05;;;;;26.50;100936.00;;;;5068818;28;20206;-79
2021/07/13 09:09:52;;;;;;;15.35;12.32;;;;;26.50;100939.00;;;;5068443;28;20234;-79
2021/07/13 09:12:22;;;;;;;19.42;14.00;;;;;26.50;100939.00;;;;5076397;28;20256;-81
2021/07/13 09:15:00;;;;;;;19.83;12.90;;;;;26.40;100939.00;;;;5074758;28;20245;-81
2021/07/13 09:17:37;;;;;;;16.13;12.82;;;;;26.30;100937.00;;;;5068311;28;20195;-79
2021/07/13 09:20:11;;;;;;;17.50;12.07;;;;;26.40;100934.00;;;;5071845;28;20194;-79
2021/07/13 09:22:41;;;;;;;16.60;13.20;;;;;26.40;100944.00;;;;5071872;28;20209;-80
2021/07/13 09:25:30;;;;;;;17.38;12.75;;;;;26.30;100938.00;;;;5085876;28;20198;-79
2021/07/13 09:28:23;;;;;;;17.42;12.45;;;;;26.20;100946.00;;;;5075680;28;20206;-79
2021/07/13 09:30:53;;;;;;;17.80;13.05;;;;;26.30;100942.00;;;;5062715;28;20203;-80
2021/07/13 09:33:22;;;;;;;15.23;12.32;;;;;26.30;100936.00;;;;5074043;28;20190;-80
2021/07/13 09:36:07;;;;;;;19.08;13.63;;;;;26.20;100937.00;;;;5073349;28;20231;-80
2021/07/13 09:38:37;;;;;;;14.68;11.90;;;;;26.30;100926.00;;;;5067146;28;20289;-79
2021/07/13 09:41:10;;;;;;;18.25;13.23;;;;;26.30;100931.00;;;;5068521;28;20572;-79
2021/07/13 09:43:49;;;;;;;17.02;12.32;;;;;26.20;100926.00;;;;5068566;28;20928;-80
2021/07/13 09:46:25;;;;;;;17.77;13.45;;;;;26.30;100927.00;;;;5068504;28;20244;-80
2021/07/13 09:49:12;;;;;;;16.95;13.02;;;;;26.20;100924.00;;;;5074022;28;21093;-79
2021/07/13 09:51:40;;;;;;;17.23;11.55;;;;;26.30;100929.00;;;;5083248;28;20194;-79
2021/07/13 09:54:46;;;;;;;19.20;13.50;;;;;26.20;100927.00;;;;5092440;28;20209;-80
2021/07/13 09:57:18;;;;;;;16.05;12.50;;;;;26.30;100932.00;;;;5075479;28;20792;-79
2021/07/13 09:59:48;;;;;;;18.08;14.35;;;;;26.30;100929.00;;;;5083386;28;20714;-80
2021/07/13 10:02:16;;;;;;;18.35;13.32;;;;;26.30;100938.00;;;;5088800;28;20220;-79
2021/07/13 10:04:44;;;;;;;20.25;13.90;;;;;26.30;100935.00;;;;5071294;28;20349;-80
2021/07/13 10:07:13;;;;;;;16.88;13.35;;;;;26.30;100935.00;;;;5079115;28;20205;-79
2021/07/13 10:09:44;;;;;;;16.60;13.10;;;;;26.20;100942.00;;;;5078142;28;20206;-79
2021/07/13 10:12:14;;;;;;;15.65;13.02;;;;;26.30;100938.00;;;;5076867;28;20690;-80
2021/07/13 10:14:44;;;;;;;17.92;13.98;;;;;26.20;100942.00;;;;5086458;28;20199;-79
2021/07/13 10:17:14;;;;;;;16.75;13.35;;;;;26.20;100941.00;;;;5071828;28;20618;-79
2021/07/13 10:19:46;;;;;;;17.55;12.75;;;;;26.20;100944.00;;;;5076164;28;20201;-79
2021/07/13 10:22:15;;;;;;;17.50;13.93;;;;;26.20;100946.00;;;;5077388;28;20203;-79
2021/07/13 10:24:44;;;;;;;19.65;14.23;;;;;26.20;100952.00;;;;5070204;28;20700;-79
2021/07/13 10:27:15;;;;;;;19.85;12.75;;;;;26.20;100952.00;;;;5072230;28;20219;-79
2021/07/13 10:29:44;;;;;;;17.27;13.60;;;;;26.20;100953.00;;;;5086096;28;20274;-79
2021/07/13 10:32:32;;;;;;;16.35;12.77;;;;;26.10;100953.00;;;;5087524;28;20194;-79
2021/07/13 10:35:04;;;;;;;15.80;12.88;;;;;26.20;100950.00;;;;5071040;28;20211;-79
2021/07/13 10:37:35;;;;;;;19.17;14.15;;;;;26.20;100959.00;;;;5070682;28;20203;-80
2021/07/13 10:40:07;;;;;;;15.77;13.02;;;;;26.10;100968.00;;;;5074607;28;20195;-79
2021/07/13 10:42:54;;;;;;;18.23;13.40;;;;;26.00;100969.00;;;;5080836;28;20968;-79
2021/07/13 10:45:24;;;;;;;15.18;12.38;;;;;26.10;100967.00;;;;5088151;28;20225;-80
2021/07/13 10:47:59;;;;;;;16.30;13.27;;;;;26.00;100972.00;;;;5070633;28;20738;-80
2021/07/13 10:50:38;;;;;;;17.88;13.38;;;;;26.00;100972.00;;;;5077928;28;20201;-80
2021/07/13 10:53:06;;;;;;;17.80;13.20;;;;;26.10;100971.00;;;;5084566;28;20205;-80
2021/07/13 10:55:48;;;;;;;16.60;12.48;;;;;26.00;100974.00;;;;5084874;28;20206;-80
2021/07/13 10:58:31;;;;;;;16.95;14.00;;;;;26.10;100972.00;;;;5079210;28;20212;-80
2021/07/13 11:01:27;;;;;;;16.67;13.25;;;;;26.00;100976.00;;;;5086274;28;20194;-80
2021/07/13 11:04:04;;;;;;;15.75;12.25;;;;;26.10;100971.00;;;;5069274;28;20223;-80
2021/07/13 11:06:53;;;;;;;16.58;13.20;;;;;26.10;100973.00;;;;5074778;28;20198;-80
2021/07/13 11:09:38;;;;;;;16.10;12.85;;;;;26.10;100978.00;;;;5076819;28;20226;-81
2021/07/13 11:12:17;;;;;;;19.95;12.57;;;;;26.10;100980.00;;;;5071239;28;20198;-80
2021/07/13 11:14:58;;;;;;;15.82;12.02;;;;;26.10;100975.00;;;;5070859;28;20549;-79
2021/07/13 11:17:28;;;;;;;16.95;12.25;;;;;26.10;100969.00;;;;5080777;28;20197;-80
2021/07/13 11:20:14;;;;;;;17.30;14.02;;;;;26.00;100963.00;;;;5090257;28;20205;-79
2021/07/13 11:22:44;;;;;;;18.05;13.35;;;;;26.20;100965.00;;;;5088681;28;20206;-80
2021/07/13 11:25:24;;;;;;;16.42;12.65;;;;;26.10;100963.00;;;;5086580;28;20221;-80
2021/07/13 11:28:05;;;;;;;15.48;12.10;;;;;26.10;100965.00;;;;5085678;28;20464;-80
2021/07/13 11:30:32;;;;;;;16.00;12.73;;;;;26.20;100968.00;;;;5068634;28;20187;-80
2021/07/13 11:33:04;;;;;;;15.00;11.80;;;;;26.20;100963.00;;;;5073678;28;20255;-80
2021/07/13 11:35:33;;;;;;;15.65;12.20;;;;;26.20;100973.00;;;;5080459;28;20226;-80
2021/07/13 11:38:01;;;;;;;14.95;11.63;;;;;26.30;100972.00;;;;5075585;28;20668;-79
2021/07/13 11:40:28;;;;;;;15.20;12.38;;;;;26.20;100971.00;;;;5087584;28;20206;-80
2021/07/13 11:43:00;;;;;;;13.82;10.85;;;;;26.20;100966.00;;;;5074701;28;20202;-80
2021/07/13 11:45:28;;;;;;;15.30;12.07;;;;;26.20;100966.00;;;;5078887;28;20218;-80
2021/07/13 11:48:05;;;;;;;15.95;11.75;;;;;26.10;100967.00;;;;5077638;28;20190;-81
2021/07/13 11:50:34;;;;;;;14.80;11.32;;;;;26.20;100967.00;;;;5073856;28;20195;-79
2021/07/13 11:53:16;;;;;;;14.43;11.80;;;;;26.20;100965.00;;;;5079502;28;20209;-79
2021/07/13 11:55:43;;;;;;;13.30;10.68;;;;;26.20;100975.00;;;;5088165;28;20202;-79
2021/07/13 11:58:10;;;;;;;13.95;11.18;;;;;26.20;100978.00;;;;5075336;28;20218;-80
2021/07/13 12:00:38;;;;;;;13.93;10.95;;;;;26.20;100978.00;;;;5077956;28;20221;-79
2021/07/13 12:03:05;;;;;;;12.93;11.15;;;;;26.20;100987.00;;;;5082609;28;20202;-80
2021/07/13 12:05:33;;;;;;;13.35;10.98;;;;;26.10;100985.00;;;;5070156;28;20252;-79